Time;durP1;ratioP1;P1;durP2;ratioP2;P2;SDS_P1;SDS_P2;PMS_P1;PMS_P2;Temp;Humidity;BMP_temperature;BMP_pressure;BME280_temperature;BME280_humidity;BME280_pressure;Samples;Min_cycle;Max_cycle;Signal;HPM_P1;HPM_P2
2022/01/05 00:01:08;;;;;;;4.72;3.60;;;;;;;4.36;73.65;98830.88;1739715;81;21020;-73
2022/01/05 00:03:36;;;;;;;5.30;3.58;;;;;;;4.35;73.81;98834.45;1769757;79;21002;-72
2022/01/05 00:06:03;;;;;;;5.58;3.85;;;;;;;4.33;74.06;98833.72;1753189;80;21492;-70
2022/01/05 00:08:30;;;;;;;7.58;4.28;;;;;;;4.31;74.23;98828.61;1742406;79;22261;-71
2022/01/05 00:10:56;;;;;;;5.53;4.00;;;;;;;4.29;74.42;98829.22;1795675;79;20936;-71
2022/01/05 00:13:23;;;;;;;7.00;3.90;;;;;;;4.27;74.56;98831.12;1737573;81;20996;-72
2022/01/05 00:15:49;;;;;;;7.62;4.42;;;;;;;4.25;74.68;98824.36;1731047;81;21007;-71
2022/01/05 00:18:15;;;;;;;6.17;4.22;;;;;;;4.20;74.87;98812.94;1737090;81;20961;-69
2022/01/05 00:20:43;;;;;;;6.47;4.33;;;;;;;4.17;75.05;98814.98;1746093;80;22276;-68
2022/01/05 00:23:10;;;;;;;8.25;4.58;;;;;;;4.11;75.29;98805.82;1752430;80;21494;-65
2022/01/05 00:25:37;;;;;;;6.75;4.30;;;;;;;4.06;75.61;98805.36;1772753;79;21415;-67
2022/01/05 00:28:04;;;;;;;6.22;4.67;;;;;;;4.03;75.83;98797.73;1762607;80;21000;-64
2022/01/05 00:30:31;;;;;;;6.35;4.33;;;;;;;3.98;76.07;98788.14;1749129;80;21011;-65
2022/01/05 00:32:58;;;;;;;6.03;4.92;;;;;;;3.95;76.25;98790.97;1733330;81;21834;-65
2022/01/05 00:35:24;;;;;;;7.15;4.95;;;;;;;3.91;76.42;98775.19;1751243;80;21012;-66
2022/01/05 00:37:51;;;;;;;6.80;5.10;;;;;;;3.87;76.68;98785.05;1774915;80;21023;-65
2022/01/05 00:40:17;;;;;;;12.58;9.30;;;;;;;3.83;77.05;98779.70;1758735;80;20981;-65
2022/01/05 00:42:43;;;;;;;18.17;13.22;;;;;;;3.78;77.26;98772.70;1756032;80;21003;-65
2022/01/05 00:45:10;;;;;;;8.80;6.00;;;;;;;3.77;77.50;98771.52;1745791;80;21809;-65
2022/01/05 00:47:36;;;;;;;6.35;5.37;;;;;;;3.77;77.65;98777.58;1758411;80;20956;-66
2022/01/05 00:50:04;;;;;;;7.53;5.17;;;;;;;3.75;77.81;98774.22;1732308;82;21009;-65
2022/01/05 00:52:31;;;;;;;7.62;5.25;;;;;;;3.73;78.04;98772.21;1753613;81;21000;-67
2022/01/05 00:54:58;;;;;;;7.42;5.10;;;;;;;3.70;78.19;98768.06;1743038;82;20948;-66
2022/01/05 00:57:24;;;;;;;9.08;5.33;;;;;;;3.70;78.27;98758.09;1742380;80;21795;-66
2022/01/05 00:59:51;;;;;;;7.25;5.25;;;;;;;3.69;78.38;98752.05;1776425;80;21472;-66
2022/01/05 01:02:17;;;;;;;8.00;5.50;;;;;;;3.68;78.52;98749.08;1746204;80;20950;-66
2022/01/05 01:04:44;;;;;;;8.85;5.35;;;;;;;3.68;78.62;98757.39;1734963;80;20980;-66
2022/01/05 01:07:12;;;;;;;9.30;5.20;;;;;;;3.67;78.64;98738.28;1739730;80;21068;-64
2022/01/05 01:09:39;;;;;;;8.43;5.37;;;;;;;3.68;78.67;98745.64;1757601;80;21821;-67
2022/01/05 01:12:16;;;;;;;7.60;5.17;;;;;;;3.68;78.75;98749.56;1734864;82;20985;-67
2022/01/05 01:14:54;;;;;;;8.23;5.50;;;;;;;3.67;78.83;98744.81;1733206;82;21451;-68
2022/01/05 01:17:43;;;;;;;6.90;5.00;;;;;;;3.67;78.88;98747.90;1704354;80;20977;-68
2022/01/05 04:44:34;;;;;;;6.50;4.85;;;;;;;3.58;80.90;98528.02;1764525;80;20962;-65
2022/01/05 04:47:00;;;;;;;9.63;5.90;;;;;;;3.61;80.94;98525.16;1749833;80;21884;-66
2022/01/05 04:49:27;;;;;;;8.13;5.65;;;;;;;3.62;81.01;98527.63;1759203;80;21013;-66
2022/01/05 04:51:54;;;;;;;11.18;5.95;;;;;;;3.66;81.00;98535.56;1774893;80;21400;-66
2022/01/05 04:54:20;;;;;;;9.73;5.70;;;;;;;3.69;81.03;98529.28;1768348;80;21034;-67
2022/01/05 04:56:47;;;;;;;9.38;5.87;;;;;;;3.71;81.02;98527.38;1767354;80;21089;-66
2022/01/05 04:59:13;;;;;;;8.10;5.70;;;;;;;3.74;81.02;98537.56;1773794;80;21848;-66
2022/01/05 05:01:40;;;;;;;8.13;5.60;;;;;;;3.76;81.03;98535.64;1769871;80;21436;-66
2022/01/05 05:04:06;;;;;;;11.33;6.10;;;;;;;3.79;80.97;98538.52;1727152;80;21013;-66
2022/01/05 05:06:32;;;;;;;10.20;6.33;;;;;;;3.79;80.99;98534.12;1764011;79;20992;-66
2022/01/05 05:08:59;;;;;;;11.30;6.47;;;;;;;3.81;80.94;98533.51;1793318;79;21057;-66
2022/01/05 05:11:26;;;;;;;11.28;6.22;;;;;;;3.81;80.94;98533.51;1767849;79;21842;-66
2022/01/05 05:13:52;;;;;;;9.78;6.90;;;;;;;3.84;80.92;98544.17;1736928;81;21329;-65
2022/01/05 05:16:19;;;;;;;10.32;6.67;;;;;;;3.84;80.90;98538.47;1761017;80;21008;-67
2022/01/05 05:18:45;;;;;;;10.18;6.17;;;;;;;3.86;80.87;98535.73;1766050;80;21049;-66
2022/01/05 05:21:12;;;;;;;9.13;6.40;;;;;;;3.87;80.89;98545.25;1765191;80;21115;-67
2022/01/05 05:23:38;;;;;;;8.30;6.30;;;;;;;3.87;80.88;98542.16;1762446;80;21800;-67
2022/01/05 05:26:05;;;;;;;10.25;6.15;;;;;;;3.88;80.90;98539.91;1767860;80;20934;-64
2022/01/05 05:28:31;;;;;;;8.23;6.40;;;;;;;3.90;80.87;98536.69;1768484;80;21405;-65
2022/01/05 05:30:59;;;;;;;9.10;6.60;;;;;;;3.91;80.85;98527.06;1776320;80;21001;-65
2022/01/05 05:33:25;;;;;;;8.85;6.15;;;;;;;3.89;80.80;98537.64;1768902;80;21025;-65
2022/01/05 05:35:52;;;;;;;13.45;7.47;;;;;;;3.89;80.73;98542.86;1771479;80;21825;-66
2022/01/05 05:38:19;;;;;;;12.60;8.73;;;;;;;3.87;80.70;98537.42;1763476;80;20989;-64
2022/01/05 05:40:46;;;;;;;11.95;9.00;;;;;;;3.85;80.70;98541.44;1763328;80;21020;-64
2022/01/05 05:43:12;;;;;;;14.90;9.50;;;;;;;3.85;80.74;98536.21;1765486;80;20950;-63
2022/01/05 05:45:39;;;;;;;10.85;8.58;;;;;;;3.86;80.79;98537.90;1765013;80;21005;-64
2022/01/05 05:48:05;;;;;;;9.70;7.83;;;;;;;3.89;80.78;98544.65;1774013;80;22497;-66
2022/01/05 05:50:32;;;;;;;11.95;8.25;;;;;;;3.91;80.79;98542.73;1755649;80;20964;-65
2022/01/05 05:52:58;;;;;;;11.05;8.00;;;;;;;3.92;80.80;98555.66;1717060;83;21012;-65
2022/01/05 05:55:25;;;;;;;10.40;7.60;;;;;;;3.95;80.78;98546.27;1720291;81;20974;-69
2022/01/05 05:57:51;;;;;;;13.32;7.92;;;;;;;3.97;80.79;98558.75;1768328;80;20944;-66
2022/01/05 06:00:18;;;;;;;11.28;7.62;;;;;;;3.97;80.75;98557.92;1747223;82;22240;-64
2022/01/05 06:02:45;;;;;;;10.93;7.83;;;;;;;3.97;80.65;98554.83;1763348;80;20944;-65
2022/01/05 06:05:11;;;;;;;8.90;6.87;;;;;;;3.95;80.58;98559.33;1763022;80;21048;-65
2022/01/05 06:07:39;;;;;;;11.05;8.00;;;;;;;3.94;80.52;98556.84;1767127;80;21659;-64
2022/01/05 06:10:07;;;;;;;10.00;7.22;;;;;;;3.91;80.48;98561.02;1764871;81;21359;-64
2022/01/05 06:12:34;;;;;;;11.00;8.15;;;;;;;3.89;80.48;98562.45;1749297;80;22477;-65
2022/01/05 06:15:00;;;;;;;11.48;7.87;;;;;;;3.89;80.50;98566.37;1762072;80;22118;-64
2022/01/05 06:17:27;;;;;;;12.80;8.60;;;;;;;3.89;80.56;98570.28;1773234;80;21432;-64
2022/01/05 06:19:53;;;;;;;14.63;9.38;;;;;;;3.91;80.65;98567.06;1770092;81;20958;-65
2022/01/05 06:22:20;;;;;;;15.28;11.05;;;;;;;3.95;80.74;98555.88;1770112;81;20993;-65
2022/01/05 06:24:46;;;;;;;14.13;10.68;;;;;;;4.00;80.83;98561.58;1757562;80;21824;-65
2022/01/05 06:27:12;;;;;;;10.00;7.08;;;;;;;4.07;80.91;98555.39;1767120;80;20913;-64
2022/01/05 06:29:40;;;;;;;9.75;6.45;;;;;;;4.15;81.03;98573.85;1748688;80;21044;-64
2022/01/05 06:32:07;;;;;;;9.65;6.60;;;;;;;4.25;81.02;98577.41;1746427;82;21440;-64
2022/01/05 06:34:35;;;;;;;10.00;7.30;;;;;;;4.31;80.99;98575.09;1771074;80;20921;-63
2022/01/05 06:37:01;;;;;;;11.60;7.37;;;;;;;4.38;80.97;98575.42;1774476;80;21754;-64
2022/01/05 06:39:28;;;;;;;11.03;6.62;;;;;;;4.45;80.95;98574.45;1731577;81;21023;-63
2022/01/05 06:41:54;;;;;;;8.78;6.30;;;;;;;4.50;80.90;98582.72;1747328;82;20993;-64
2022/01/05 06:44:21;;;;;;;9.05;6.85;;;;;;;4.55;80.86;98582.70;1758338;80;21048;-64
2022/01/05 06:46:47;;;;;;;9.23;6.87;;;;;;;4.59;80.82;98577.56;1743706;80;21511;-64
2022/01/05 06:49:14;;;;;;;9.08;6.65;;;;;;;4.65;80.77;98575.41;1765076;80;22524;-64
2022/01/05 06:51:41;;;;;;;10.15;7.70;;;;;;;4.67;80.72;98573.00;1751694;81;21432;-64
2022/01/05 06:54:07;;;;;;;9.95;7.35;;;;;;;4.71;80.68;98558.70;1741901;82;21528;-63
2022/01/05 06:56:33;;;;;;;9.33;7.72;;;;;;;4.74;80.63;98563.69;1740696;81;21455;-65
2022/01/05 06:59:00;;;;;;;14.68;10.85;;;;;;;4.78;80.59;98566.87;1740381;81;21057;-64
2022/01/05 07:01:27;;;;;;;15.25;10.70;;;;;;;4.81;80.58;98558.75;1741911;82;21848;-64
2022/01/05 07:03:53;;;;;;;10.82;7.80;;;;;;;4.86;80.55;98557.42;1768951;81;20976;-64
2022/01/05 07:06:19;;;;;;;9.75;6.72;;;;;;;4.93;80.51;98566.06;1751132;80;21460;-65
2022/01/05 07:08:46;;;;;;;9.68;6.40;;;;;;;4.97;80.46;98564.83;1761931;81;21393;-65
2022/01/05 07:11:13;;;;;;;11.53;7.05;;;;;;;5.02;80.40;98565.25;1746061;80;21079;-64
2022/01/05 07:13:39;;;;;;;10.20;6.58;;;;;;;5.06;80.30;98561.43;1744844;82;21792;-64
2022/01/05 07:16:06;;;;;;;9.40;6.50;;;;;;;5.08;80.22;98546.42;1744331;81;20929;-64
2022/01/05 07:18:32;;;;;;;10.45;6.85;;;;;;;5.12;80.15;98549.97;1762090;80;21431;-64
2022/01/05 07:20:59;;;;;;;9.83;6.97;;;;;;;5.15;80.04;98549.69;1726809;81;21005;-64
2022/01/05 07:23:25;;;;;;;10.40;6.65;;;;;;;5.17;79.97;98558.23;1757103;80;20946;-68
2022/01/05 07:25:52;;;;;;;11.35;7.45;;;;;;;5.21;79.92;98569.73;1757755;80;21500;-67
2022/01/05 07:28:19;;;;;;;8.43;6.78;;;;;;;5.24;79.85;98561.16;1765923;80;21049;-64
2022/01/05 07:30:46;;;;;;;9.68;6.97;;;;;;;5.27;79.81;98554.83;1764163;81;20956;-65
2022/01/05 07:33:12;;;;;;;9.60;7.22;;;;;;;5.30;79.78;98560.61;1765442;81;20953;-65
2022/01/05 07:35:39;;;;;;;10.08;7.28;;;;;;;5.35;79.76;98561.53;1764596;80;21041;-66
2022/01/05 07:38:06;;;;;;;10.55;7.17;;;;;;;5.38;79.72;98566.50;1765831;80;22624;-67
2022/01/05 07:40:33;;;;;;;9.58;6.97;;;;;;;5.41;79.64;98562.33;1752216;80;21387;-66
2022/01/05 07:43:01;;;;;;;11.80;7.30;;;;;;;5.44;79.61;98564.19;1770963;81;20980;-63
2022/01/05 07:45:28;;;;;;;10.08;7.37;;;;;;;5.50;79.54;98569.83;1771938;81;20988;-64
2022/01/05 07:47:55;;;;;;;11.15;7.45;;;;;;;5.56;79.51;98565.38;1769052;80;21017;-63
2022/01/05 07:50:21;;;;;;;9.48;7.10;;;;;;;5.63;79.50;98579.60;1761394;80;21866;-64
2022/01/05 07:52:48;;;;;;;10.25;7.40;;;;;;;5.69;79.41;98572.05;1752360;81;21511;-65
2022/01/05 07:55:14;;;;;;;9.95;7.08;;;;;;;5.78;79.40;98577.41;1737205;81;21472;-63
2022/01/05 07:57:41;;;;;;;12.65;7.30;;;;;;;5.85;79.37;98579.84;1749638;80;21044;-64
2022/01/05 08:00:09;;;;;;;11.65;7.03;;;;;;;5.91;79.27;98578.86;1752148;80;21016;-63
2022/01/05 08:02:36;;;;;;;11.53;7.80;;;;;;;5.96;79.19;98567.95;1747814;81;21872;-63
2022/01/05 08:05:03;;;;;;;11.25;7.30;;;;;;;5.99;79.15;98565.91;1751481;81;21567;-63
2022/01/05 08:07:30;;;;;;;8.43;6.72;;;;;;;6.04;79.13;98573.34;1739122;80;21080;-64
2022/01/05 08:09:56;;;;;;;9.80;7.35;;;;;;;6.10;79.13;98574.12;1771345;80;20980;-63
2022/01/05 08:12:22;;;;;;;9.58;7.28;;;;;;;6.17;79.15;98582.23;1749674;80;20946;-63
2022/01/05 08:14:49;;;;;;;12.20;7.90;;;;;;;6.23;79.12;98589.08;1741883;82;21795;-64
2022/01/05 08:17:15;;;;;;;11.20;7.50;;;;;;;6.29;79.10;98588.53;1742401;81;21432;-63
2022/01/05 08:19:42;;;;;;;8.93;7.22;;;;;;;6.35;79.06;98588.45;1751623;79;20933;-64
2022/01/05 08:22:09;;;;;;;10.38;7.50;;;;;;;6.41;79.04;98577.91;1762961;79;21126;-64
2022/01/05 08:24:36;;;;;;;11.60;7.65;;;;;;;6.46;79.01;98576.50;1784793;79;20989;-64
2022/01/05 08:27:04;;;;;;;11.03;6.92;;;;;;;6.54;79.06;98572.70;1745225;81;21739;-64
2022/01/05 08:29:32;;;;;;;9.63;7.03;;;;;;;6.62;79.03;98572.00;1743232;82;20969;-63
2022/01/05 08:32:02;;;;;;;9.73;6.78;;;;;;;6.68;78.98;98557.02;1761426;80;21441;-64
2022/01/05 08:34:26;;;;;;;9.78;7.12;;;;;;;6.74;78.89;98553.81;1764977;81;20938;-64
2022/01/05 08:36:52;;;;;;;9.10;6.55;;;;;;;6.79;78.77;98546.84;1764585;80;21052;-65
2022/01/05 08:39:20;;;;;;;9.93;6.72;;;;;;;6.84;78.68;98554.61;1764820;81;22521;-64
2022/01/05 08:41:46;;;;;;;8.43;6.50;;;;;;;6.87;78.56;98551.72;1722547;80;20950;-64
2022/01/05 08:44:13;;;;;;;11.53;8.70;;;;;;;6.93;78.48;98554.73;1757442;80;21376;-65
2022/01/05 08:46:39;;;;;;;11.40;8.68;;;;;;;6.99;78.36;98551.55;1765551;80;20941;-65
2022/01/05 08:49:06;;;;;;;11.85;8.63;;;;;;;7.04;78.25;98551.92;1740899;81;21005;-65
2022/01/05 08:51:33;;;;;;;8.93;7.50;;;;;;;7.09;78.15;98549.22;1741041;82;21727;-64
2022/01/05 08:53:59;;;;;;;9.80;7.10;;;;;;;7.13;78.08;98544.01;1745070;81;21029;-65
2022/01/05 08:56:25;;;;;;;9.55;5.75;;;;;;;7.18;78.01;98544.41;1745023;81;20977;-64
2022/01/05 08:58:52;;;;;;;13.45;8.58;;;;;;;7.26;77.90;98549.44;1746201;80;20946;-65
2022/01/05 09:01:18;;;;;;;10.20;6.50;;;;;;;7.32;77.79;98555.41;1744463;81;20997;-65
2022/01/05 09:03:45;;;;;;;9.98;6.67;;;;;;;7.38;77.69;98563.53;1758867;81;22584;-64
2022/01/05 09:06:11;;;;;;;11.08;7.17;;;;;;;7.48;77.58;98565.28;1755903;81;20902;-64
2022/01/05 09:08:38;;;;;;;10.35;7.78;;;;;;;7.58;77.30;98569.52;1756195;81;20981;-64
2022/01/05 09:11:07;;;;;;;12.25;9.33;;;;;;;7.72;77.03;98582.17;1759954;80;20955;-65
2022/01/05 09:13:35;;;;;;;14.43;10.82;;;;;;;7.85;76.65;98583.12;1752958;81;21055;-66
2022/01/05 09:16:03;;;;;;;12.60;8.48;;;;;;;7.96;76.23;98580.27;1740119;81;22513;-65
2022/01/05 09:18:30;;;;;;;12.60;8.60;;;;;;;8.06;75.80;98574.13;1753547;81;20996;-65
2022/01/05 09:20:56;;;;;;;8.38;6.12;;;;;;;8.14;75.33;98583.41;1741125;82;20965;-65
2022/01/05 09:23:23;;;;;;;10.08;7.00;;;;;;;8.17;75.08;98581.30;1741072;82;21416;-65
2022/01/05 09:25:51;;;;;;;8.95;6.60;;;;;;;8.10;74.85;98578.92;1748553;81;21055;-65
2022/01/05 09:28:17;;;;;;;9.85;7.00;;;;;;;8.00;74.67;98583.42;1762791;81;21834;-65
2022/01/05 09:30:46;;;;;;;10.20;7.85;;;;;;;7.89;74.66;98580.52;1764034;80;21369;-65
2022/01/05 09:33:15;;;;;;;13.55;9.48;;;;;;;7.83;74.61;98577.68;1771374;80;20965;-65
2022/01/05 09:35:42;;;;;;;13.78;9.48;;;;;;;7.74;74.50;98574.95;1770566;80;20989;-65
2022/01/05 09:43:55;;;;;;;8.83;6.65;;;;;;;7.56;74.59;98593.80;1657597;84;20970;-64
2022/01/05 09:46:34;;;;;;;12.15;7.03;;;;;;;7.54;74.68;98583.10;1754636;81;27672;-65
2022/01/05 09:49:17;;;;;;;10.60;7.87;;;;;;;7.55;74.78;98580.81;1741991;81;21476;-64
2022/01/05 09:51:45;;;;;;;13.38;9.70;;;;;;;7.57;74.88;98590.68;1743801;80;21042;-64
2022/01/05 09:54:12;;;;;;;15.25;9.90;;;;;;;7.62;74.99;98593.68;1733195;81;21815;-64
2022/01/05 09:56:39;;;;;;;11.20;7.85;;;;;;;7.66;75.01;98598.52;1758036;81;21005;-67
2022/01/05 09:59:05;;;;;;;12.03;8.38;;;;;;;7.69;75.07;98594.27;1755427;81;21001;-63
2022/01/05 10:01:35;;;;;;;13.78;8.30;;;;;;;7.73;75.11;98596.96;1749887;80;21005;-64
2022/01/05 10:04:01;;;;;;;11.57;8.20;;;;;;;7.80;75.15;98592.41;1759314;80;21009;-63
2022/01/05 10:06:28;;;;;;;13.03;8.75;;;;;;;7.88;75.16;98593.81;1742713;81;21836;-63
2022/01/05 10:08:55;;;;;;;10.18;7.35;;;;;;;7.94;75.13;98595.86;1749438;81;21095;-64
2022/01/05 10:11:23;;;;;;;13.88;8.50;;;;;;;8.04;75.02;98592.68;1771376;81;20940;-65
2022/01/05 10:13:50;;;;;;;12.45;8.13;;;;;;;8.18;75.03;98601.84;1762078;79;20978;-65
2022/01/05 10:16:19;;;;;;;13.50;9.35;;;;;;;8.33;74.96;98590.66;1755132;81;21037;-65
2022/01/05 10:18:45;;;;;;;12.37;8.08;;;;;;;8.52;74.83;98592.81;1760669;81;21840;-64
2022/01/05 10:21:14;;;;;;;10.40;6.92;;;;;;;8.67;74.41;98589.95;1759115;80;20979;-65
2022/01/05 10:23:45;;;;;;;9.40;6.75;;;;;;;8.79;74.02;98590.07;1710556;81;20986;-65
2022/01/05 10:26:36;;;;;;;10.45;6.47;;;;;;;8.89;73.55;98589.48;1730789;81;20971;-64
2022/01/05 10:29:15;;;;;;;8.80;6.15;;;;;;;9.04;73.38;98584.95;1699688;83;20958;-65
2022/01/05 10:31:43;;;;;;;9.25;6.25;;;;;;;9.18;72.63;98594.42;1754774;81;21852;-66
2022/01/05 10:34:16;;;;;;;9.10;6.10;;;;;;;9.25;71.85;98584.06;1749716;80;21768;-65
2022/01/05 10:36:55;;;;;;;9.33;5.83;;;;;;;9.29;71.46;98591.19;1745931;81;21417;-67
2022/01/05 10:39:40;;;;;;;7.40;5.70;;;;;;;9.30;71.17;98583.12;1744671;82;21003;-64
2022/01/05 10:42:10;;;;;;;6.50;5.08;;;;;;;9.30;70.82;98584.44;1755502;81;21000;-66
2022/01/05 10:44:38;;;;;;;6.17;5.25;;;;;;;9.33;70.78;98580.66;1768745;80;21778;-67
2022/01/05 10:47:06;;;;;;;7.03;5.40;;;;;;;9.37;70.62;98593.86;1776625;80;20949;-66
2022/01/05 10:49:40;;;;;;;7.35;5.15;;;;;;;9.42;70.60;98589.75;1777161;80;21384;-67
2022/01/05 10:52:27;;;;;;;7.15;5.80;;;;;;;9.46;70.43;98587.16;1747770;80;20992;-66
2022/01/05 10:55:16;;;;;;;9.18;6.17;;;;;;;9.52;70.45;98587.00;1776816;80;21392;-65
2022/01/05 10:58:15;;;;;;;8.18;5.78;;;;;;;9.64;70.56;98594.94;1776344;80;21975;-66
2022/01/05 11:00:47;;;;;;;8.68;6.92;;;;;;;9.80;70.45;98599.45;1762115;80;20964;-67
2022/01/05 11:03:30;;;;;;;12.33;9.38;;;;;;;9.90;69.97;98605.42;1759228;80;21395;-65
2022/01/05 11:06:16;;;;;;;10.78;7.80;;;;;;;9.93;69.89;98601.63;1770401;81;21352;-66
2022/01/05 11:09:00;;;;;;;10.23;5.92;;;;;;;9.92;69.76;98605.25;1746136;82;21106;-66
2022/01/05 11:11:40;;;;;;;8.33;6.00;;;;;;;9.89;69.72;98609.05;1746548;82;22482;-67
2022/01/05 11:14:29;;;;;;;10.23;7.40;;;;;;;9.87;69.74;98611.52;1767610;80;20857;-64
2022/01/05 11:17:01;;;;;;;9.28;6.03;;;;;;;9.86;69.66;98617.78;1769030;80;21487;-65
2022/01/05 11:19:33;;;;;;;6.83;5.25;;;;;;;9.82;69.48;98619.06;1746074;82;21016;-65
2022/01/05 11:22:16;;;;;;;6.70;4.37;;;;;;;9.79;69.39;98634.72;1746419;79;20988;-65
2022/01/05 11:24:51;;;;;;;6.28;4.50;;;;;;;9.74;69.32;98631.72;1776550;80;21857;-64
2022/01/05 11:27:25;;;;;;;6.58;4.85;;;;;;;9.65;69.39;98622.98;1776944;80;21053;-65
2022/01/05 11:29:52;;;;;;;6.67;5.20;;;;;;;9.61;69.58;98618.99;1777048;80;20998;-66
2022/01/05 11:32:23;;;;;;;8.43;5.17;;;;;;;9.57;69.58;98611.58;1746295;80;21491;-64
2022/01/05 11:34:50;;;;;;;7.37;4.85;;;;;;;9.51;69.48;98605.11;1775799;80;20996;-63
2022/01/05 11:37:16;;;;;;;7.60;4.92;;;;;;;9.41;69.56;98609.19;1774897;80;21463;-63
2022/01/05 11:39:49;;;;;;;6.58;4.90;;;;;;;9.35;69.72;98608.98;1770248;80;20941;-64
2022/01/05 11:42:29;;;;;;;6.87;5.25;;;;;;;9.28;69.82;98629.87;1770627;81;21028;-63
2022/01/05 11:44:55;;;;;;;10.00;6.05;;;;;;;9.23;69.98;98631.31;1767770;81;21057;-62
2022/01/05 11:47:25;;;;;;;14.95;7.33;;;;;;;9.18;70.17;98635.25;1759601;81;21053;-63
2022/01/05 11:49:53;;;;;;;17.67;11.97;;;;;;;9.17;70.33;98635.41;1769440;81;22427;-65
2022/01/05 11:52:58;;;;;;;10.25;7.33;;;;;;;9.17;70.50;98642.83;1765660;80;21049;-65
2022/01/05 11:55:25;;;;;;;7.15;5.67;;;;;;;9.16;70.63;98647.73;1744175;82;21465;-65
2022/01/05 11:58:19;;;;;;;6.67;5.33;;;;;;;9.13;70.80;98653.81;1756226;81;21096;-64
2022/01/05 12:00:47;;;;;;;9.03;5.80;;;;;;;9.10;70.78;98654.95;1760033;81;20945;-64
2022/01/05 12:03:16;;;;;;;9.40;6.65;;;;;;;9.06;70.79;98658.86;1762630;81;21872;-65
2022/01/05 12:06:08;;;;;;;10.13;6.75;;;;;;;9.03;70.84;98651.77;1725968;81;21332;-65
2022/01/05 12:08:48;;;;;;;8.20;6.03;;;;;;;8.98;70.90;98661.95;1767475;80;20949;-65
2022/01/05 12:11:41;;;;;;;7.90;5.85;;;;;;;8.96;70.97;98664.71;1769077;81;20989;-67
2022/01/05 12:14:24;;;;;;;8.38;6.00;;;;;;;8.92;70.99;98664.69;1769175;81;21012;-64
2022/01/05 12:17:11;;;;;;;10.10;6.50;;;;;;;8.80;71.23;98665.92;1770491;79;21802;-65
2022/01/05 12:19:52;;;;;;;8.35;6.05;;;;;;;8.73;71.65;98660.91;1752465;80;21024;-65
2022/01/05 12:22:29;;;;;;;9.40;6.03;;;;;;;8.77;71.58;98668.34;1743329;81;21125;-66
2022/01/05 12:25:07;;;;;;;8.03;6.35;;;;;;;8.71;71.68;98665.52;1748222;81;20997;-65
2022/01/05 12:27:50;;;;;;;8.25;6.30;;;;;;;8.65;71.73;98670.05;1754030;81;20993;-66
2022/01/05 12:30:28;;;;;;;10.45;6.72;;;;;;;8.59;71.85;98674.95;1760229;81;22661;-66
2022/01/05 12:33:10;;;;;;;8.43;6.10;;;;;;;8.56;71.96;98677.87;1745167;80;21047;-68
2022/01/05 12:35:53;;;;;;;7.30;5.25;;;;;;;8.52;72.11;98673.90;1753041;81;20992;-67
2022/01/05 12:38:42;;;;;;;8.03;6.12;;;;;;;8.47;72.11;98684.03;1755400;81;21002;-67
2022/01/05 12:41:28;;;;;;;11.70;9.45;;;;;;;8.42;72.21;98680.21;1759173;81;20993;-67
2022/01/05 12:43:56;;;;;;;9.73;6.95;;;;;;;8.37;72.33;98674.06;1754779;81;21773;-66
2022/01/05 12:46:44;;;;;;;15.13;10.20;;;;;;;8.34;72.50;98686.18;1758828;81;21096;-66
2022/01/05 12:49:17;;;;;;;11.40;8.10;;;;;;;8.29;72.61;98681.34;1759569;81;21057;-66
2022/01/05 12:51:56;;;;;;;9.48;7.47;;;;;;;8.26;72.82;98690.03;1759617;81;20938;-66
2022/01/05 12:54:28;;;;;;;10.50;8.53;;;;;;;8.23;72.96;98694.28;1759778;81;20982;-66
2022/01/05 12:57:00;;;;;;;11.05;8.35;;;;;;;8.19;73.13;98697.68;1740429;81;22484;-66
2022/01/05 12:59:32;;;;;;;10.43;8.05;;;;;;;8.17;73.29;98690.92;1751721;81;20960;-65
2022/01/05 13:02:08;;;;;;;13.70;9.30;;;;;;;8.13;73.42;98693.52;1738821;82;21460;-65
2022/01/05 13:04:36;;;;;;;13.48;9.65;;;;;;;8.10;73.56;98695.93;1759324;81;20950;-66
2022/01/05 13:07:05;;;;;;;10.23;8.10;;;;;;;8.07;73.67;98687.03;1759215;80;20954;-66
2022/01/05 13:09:38;;;;;;;15.88;11.43;;;;;;;8.05;73.76;98678.47;1762864;81;22459;-66
2022/01/05 13:12:09;;;;;;;17.45;12.45;;;;;;;8.04;73.87;98686.02;1769021;81;20946;-65
2022/01/05 13:14:38;;;;;;;13.50;9.50;;;;;;;8.02;73.95;98690.61;1759828;81;21405;-66
2022/01/05 13:17:08;;;;;;;10.60;8.30;;;;;;;8.01;74.02;98692.89;1757141;81;21405;-66
2022/01/05 13:19:44;;;;;;;15.68;10.32;;;;;;;8.02;74.07;98693.23;1759649;81;20942;-66
2022/01/05 13:22:19;;;;;;;9.93;7.30;;;;;;;8.01;74.12;98691.58;1759530;81;49651;-66
2022/01/05 13:24:58;;;;;;;9.83;7.70;;;;;;;8.01;74.20;98698.16;1759137;81;20942;-66
2022/01/05 13:27:29;;;;;;;10.40;7.30;;;;;;;7.98;74.25;98696.63;1759117;81;21001;-66
2022/01/05 13:29:57;;;;;;;13.78;9.58;;;;;;;7.96;74.33;98693.80;1758813;81;20970;-66
2022/01/05 13:32:26;;;;;;;12.25;9.05;;;;;;;7.92;74.39;98696.40;1759353;81;21004;-64
2022/01/05 13:35:01;;;;;;;13.72;9.88;;;;;;;7.89;74.46;98702.75;1768620;81;23345;-66
2022/01/05 13:37:31;;;;;;;13.10;9.65;;;;;;;7.86;74.55;98703.05;1738589;81;21005;-64
2022/01/05 13:40:10;;;;;;;14.75;11.18;;;;;;;7.84;74.63;98705.00;1759597;81;21017;-64
2022/01/05 13:42:48;;;;;;;15.80;12.53;;;;;;;7.82;74.72;98701.70;1760052;81;20998;-65
2022/01/05 13:45:27;;;;;;;14.25;10.80;;;;;;;7.79;74.87;98713.80;1757984;80;20929;-66
2022/01/05 13:48:02;;;;;;;13.22;11.40;;;;;;;7.77;74.98;98708.35;1766207;80;21926;-64
2022/01/05 13:50:37;;;;;;;15.88;11.63;;;;;;;7.71;75.14;98701.86;1769128;81;21283;-65
2022/01/05 13:53:07;;;;;;;15.13;11.55;;;;;;;7.66;75.25;98702.31;1770564;81;21001;-64
2022/01/05 13:55:40;;;;;;;14.40;11.20;;;;;;;7.65;75.38;98705.91;1763091;80;21443;-65
2022/01/05 13:58:13;;;;;;;12.93;10.10;;;;;;;7.65;75.43;98694.58;1762072;81;21017;-65
2022/01/05 14:00:40;;;;;;;14.50;11.53;;;;;;;7.64;75.51;98696.38;1764057;81;21819;-66
2022/01/05 14:03:07;;;;;;;16.65;12.33;;;;;;;7.67;75.57;98705.77;1764091;81;22006;-65
2022/01/05 14:05:34;;;;;;;14.50;11.68;;;;;;;7.64;75.63;98700.80;1763756;80;21456;-65
2022/01/05 14:08:08;;;;;;;13.15;11.12;;;;;;;7.61;75.69;98697.95;1752076;80;20992;-63
2022/01/05 14:10:37;;;;;;;15.78;10.23;;;;;;;7.58;75.79;98697.42;1739895;81;21031;-64
2022/01/05 14:13:10;;;;;;;13.68;10.38;;;;;;;7.54;75.94;98697.39;1749110;79;21027;-64
2022/01/05 14:15:37;;;;;;;12.73;9.70;;;;;;;7.50;76.01;98694.20;1770150;80;20993;-63
2022/01/05 14:18:11;;;;;;;13.28;10.20;;;;;;;7.46;76.12;98705.48;1761698;81;21048;-64
2022/01/05 14:20:49;;;;;;;12.50;8.85;;;;;;;7.43;76.25;98699.67;1750074;81;21021;-65
2022/01/05 14:23:19;;;;;;;15.05;10.58;;;;;;;7.41;76.33;98706.88;1756523;81;21040;-64
2022/01/05 14:25:59;;;;;;;13.72;10.68;;;;;;;7.41;76.41;98707.70;1756054;81;21783;-64
2022/01/05 14:28:31;;;;;;;13.75;10.48;;;;;;;7.38;76.49;98722.44;1755439;81;21069;-64
2022/01/05 14:31:06;;;;;;;16.05;12.28;;;;;;;7.36;76.57;98723.07;1765475;80;21435;-65
2022/01/05 14:33:42;;;;;;;15.90;12.37;;;;;;;7.34;76.67;98717.62;1770398;80;21032;-65
2022/01/05 14:36:23;;;;;;;14.00;11.15;;;;;;;7.34;76.76;98721.56;1770177;81;21064;-65
2022/01/05 14:39:00;;;;;;;13.88;10.65;;;;;;;7.34;76.81;98728.13;1770345;81;21850;-65
2022/01/05 14:41:48;;;;;;;13.93;11.15;;;;;;;7.32;76.93;98728.25;1769436;81;21040;-65
2022/01/05 14:44:26;;;;;;;14.73;10.85;;;;;;;7.31;76.99;98731.02;1769714;81;21040;-70
2022/01/05 14:46:59;;;;;;;14.15;10.53;;;;;;;7.28;77.08;98728.20;1771803;80;21601;-65
2022/01/05 14:49:34;;;;;;;14.07;11.43;;;;;;;7.28;77.12;98726.06;1773386;80;21035;-65
2022/01/05 14:52:02;;;;;;;16.05;12.47;;;;;;;7.27;77.21;98740.98;1773216;80;21837;-64
2022/01/05 14:54:36;;;;;;;16.80;11.45;;;;;;;7.26;77.26;98736.70;1773091;81;20996;-65
2022/01/05 14:57:12;;;;;;;16.87;11.65;;;;;;;7.26;77.32;98730.63;1773320;80;21510;-65
2022/01/05 14:59:40;;;;;;;18.62;13.78;;;;;;;7.25;77.34;98726.34;1753937;80;21009;-64
2022/01/05 15:02:08;;;;;;;22.42;16.37;;;;;;;7.24;77.36;98729.92;1773186;81;21032;-63
2022/01/05 15:04:37;;;;;;;20.55;15.88;;;;;;;7.22;77.43;98728.75;1773234;80;21024;-64
2022/01/05 15:07:04;;;;;;;23.20;15.55;;;;;;;7.19;77.51;98726.41;1773144;81;20948;-63
2022/01/05 15:09:30;;;;;;;23.92;15.80;;;;;;;7.18;77.55;98724.77;1773464;80;20916;-63
2022/01/05 15:11:57;;;;;;;23.85;16.20;;;;;;;7.16;77.61;98728.84;1773247;80;21052;-63
2022/01/05 15:14:25;;;;;;;20.00;15.32;;;;;;;7.18;77.61;98732.64;1772431;80;21024;-65
2022/01/05 15:16:52;;;;;;;19.80;14.53;;;;;;;7.16;77.65;98729.33;1758921;81;21843;-64
2022/01/05 15:19:18;;;;;;;18.12;14.13;;;;;;;7.14;77.70;98735.19;1763917;81;21016;-64
2022/01/05 15:21:45;;;;;;;18.12;14.28;;;;;;;7.12;77.73;98737.95;1767929;80;20972;-64